createdAt,value
2023-05-05T00:01:35.212Z,18.35
2023-05-05T00:04:40.919Z,18.77
2023-05-05T00:07:47.164Z,19.60
2023-05-05T00:10:53.907Z,21.30
2023-05-05T00:13:59.989Z,20.25
2023-05-05T00:17:06.202Z,18.17
2023-05-05T00:20:12.680Z,23.55
2023-05-05T00:23:21.095Z,18.67
2023-05-05T00:26:26.879Z,19.48
2023-05-05T00:29:33.387Z,21.83
2023-05-05T00:32:39.735Z,19.77
2023-05-05T00:35:45.899Z,19.88
2023-05-05T00:38:52.265Z,21.90
2023-05-05T00:41:57.651Z,22.35
2023-05-05T00:45:03.129Z,20.70
2023-05-05T00:48:09.641Z,26.13
2023-05-05T00:51:17.121Z,18.70
2023-05-05T00:54:23.238Z,15.73
2023-05-05T00:57:28.830Z,21.25
2023-05-05T01:00:34.738Z,19.10
2023-05-05T01:03:44.391Z,19.23
2023-05-05T01:07:24.426Z,19.35
2023-05-05T01:10:49.328Z,26.40
2023-05-05T01:14:03.396Z,26.02
2023-05-05T01:17:11.477Z,23.27
2023-05-05T01:20:31.740Z,23.20
2023-05-05T01:23:37.112Z,19.25
2023-05-05T01:27:13.317Z,22.95
2023-05-05T01:30:34.874Z,27.27
2023-05-05T01:33:48.687Z,23.70
2023-05-05T01:37:12.071Z,24.38
2023-05-05T01:40:23.245Z,23.73
2023-05-05T01:43:32.614Z,21.38
2023-05-05T01:46:38.804Z,25.77
2023-05-05T01:49:48.195Z,21.05
2023-05-05T01:52:55.855Z,21.52
2023-05-05T01:56:03.123Z,18.77
2023-05-05T01:59:10.226Z,24.05
2023-05-05T02:02:16.995Z,21.60
2023-05-05T02:05:26.906Z,19.52
2023-05-05T02:08:36.150Z,19.55
2023-05-05T02:11:42.318Z,22.00
2023-05-05T02:14:49.321Z,23.60
2023-05-05T02:17:58.485Z,22.00
2023-05-05T02:21:04.850Z,21.45
2023-05-05T02:24:11.842Z,23.13
2023-05-05T02:27:21.246Z,21.92
2023-05-05T02:30:31.045Z,23.77
2023-05-05T02:33:38.667Z,22.58
2023-05-05T02:36:46.940Z,22.30
2023-05-05T02:40:02.192Z,24.42
2023-05-05T02:43:15.419Z,23.75
2023-05-05T02:46:21.240Z,21.35
2023-05-05T02:49:27.324Z,21.08
2023-05-05T02:52:38.465Z,23.70
2023-05-05T02:56:08.640Z,23.60
2023-05-05T02:59:47.848Z,24.30
2023-05-05T03:03:41.232Z,22.17
2023-05-05T03:06:54.080Z,20.88
2023-05-05T03:10:14.412Z,22.63
2023-05-05T03:13:27.216Z,22.33
2023-05-05T03:16:36.825Z,23.55
2023-05-05T03:19:44.682Z,22.15
2023-05-05T03:22:50.501Z,19.25
2023-05-05T03:25:55.898Z,26.67
2023-05-05T03:29:09.947Z,19.65
2023-05-05T03:32:18.503Z,25.90
2023-05-05T03:35:25.208Z,20.63
2023-05-05T03:38:30.993Z,18.65
2023-05-05T03:41:36.316Z,20.70
2023-05-05T03:44:43.381Z,21.50
2023-05-05T03:47:49.367Z,18.83
2023-05-05T03:50:55.229Z,20.52
2023-05-05T03:54:02.900Z,19.77
2023-05-05T03:57:08.676Z,17.70
2023-05-05T04:00:15.639Z,19.40
2023-05-05T04:03:24.402Z,22.73
2023-05-05T04:06:30.475Z,20.50
2023-05-05T04:09:36.405Z,23.70
2023-05-05T04:12:42.427Z,21.45
2023-05-05T04:15:48.036Z,21.80
2023-05-05T04:18:55.697Z,18.83
2023-05-05T04:22:01.674Z,21.05
2023-05-05T04:25:08.283Z,19.52
2023-05-05T04:28:14.271Z,20.33
2023-05-05T04:31:20.438Z,18.88
2023-05-05T04:34:25.773Z,29.48
2023-05-05T04:37:31.042Z,19.67
2023-05-05T04:40:41.505Z,17.42
2023-05-05T04:43:48.123Z,20.43
2023-05-05T04:46:54.391Z,23.33
2023-05-05T04:50:00.265Z,22.38
2023-05-05T04:53:07.090Z,24.95
2023-05-05T04:56:12.682Z,22.88
2023-05-05T04:59:18.028Z,26.98
2023-05-05T05:02:23.793Z,18.92
2023-05-05T05:05:29.627Z,22.50
2023-05-05T05:08:35.451Z,23.33
2023-05-05T05:11:40.714Z,21.60
2023-05-05T05:14:45.910Z,22.55
2023-05-05T05:17:51.682Z,24.30
2023-05-05T05:20:57.491Z,21.13
2023-05-05T05:24:03.010Z,21.27
2023-05-05T05:27:10.267Z,20.65
2023-05-05T05:30:19.216Z,19.30
2023-05-05T05:33:25.359Z,17.98
2023-05-05T05:36:33.138Z,21.48
2023-05-05T05:39:39.428Z,24.23
2023-05-05T05:42:46.543Z,23.08
2023-05-05T05:45:52.179Z,17.80
2023-05-05T05:48:58.742Z,23.88
2023-05-05T05:52:03.974Z,20.00
2023-05-05T05:55:09.700Z,25.27
2023-05-05T05:58:17.425Z,27.77
2023-05-05T06:01:23.806Z,23.10
2023-05-05T06:04:31.399Z,24.05
2023-05-05T06:07:37.144Z,22.88
2023-05-05T06:10:42.885Z,22.95
2023-05-05T06:13:53.860Z,25.00
2023-05-05T06:16:59.093Z,32.55
2023-05-05T06:20:07.515Z,22.33
2023-05-05T06:23:13.303Z,21.80
2023-05-05T06:26:23.790Z,24.40
2023-05-05T06:29:29.573Z,20.00
2023-05-05T06:32:35.311Z,22.38
2023-05-05T06:35:40.883Z,24.90
2023-05-05T06:38:46.604Z,25.15
2023-05-05T06:41:52.189Z,20.33
2023-05-05T06:44:57.692Z,24.27
2023-05-05T06:48:03.051Z,19.98
2023-05-05T06:51:09.333Z,23.63
2023-05-05T06:54:14.819Z,24.10
2023-05-05T06:57:20.216Z,23.90
2023-05-05T07:00:25.790Z,25.20
2023-05-05T07:03:31.872Z,23.13
2023-05-05T07:06:37.184Z,24.77
2023-05-05T07:09:43.027Z,18.33
2023-05-05T07:12:48.837Z,21.08
2023-05-05T07:15:54.308Z,17.52
2023-05-05T07:19:01.097Z,18.30
2023-05-05T07:22:06.561Z,16.05
2023-05-05T07:25:12.465Z,13.18
2023-05-05T07:28:18.231Z,20.10
2023-05-05T07:31:23.820Z,19.40
2023-05-05T07:34:29.752Z,17.52
2023-05-05T07:37:35.533Z,14.07
2023-05-05T07:40:41.032Z,12.23
2023-05-05T07:43:46.345Z,14.13
2023-05-05T07:46:51.838Z,13.15
2023-05-05T07:49:57.479Z,14.18
2023-05-05T07:53:13.871Z,12.38
2023-05-05T07:56:21.755Z,10.75
2023-05-05T07:59:27.599Z,9.57
2023-05-05T08:02:33.238Z,11.15
2023-05-05T08:05:39.316Z,13.00
2023-05-05T08:08:44.833Z,12.00
2023-05-05T08:11:50.202Z,10.82
2023-05-05T08:14:55.810Z,10.32
2023-05-05T08:18:01.419Z,7.78
2023-05-05T08:21:08.095Z,7.30
2023-05-05T08:24:13.262Z,11.32
2023-05-05T08:27:18.568Z,4.70
2023-05-05T08:30:24.455Z,9.07
2023-05-05T08:33:30.050Z,11.82
2023-05-05T08:36:35.696Z,9.70
2023-05-05T08:39:42.204Z,14.95
2023-05-05T08:42:47.718Z,10.95
2023-05-05T08:45:56.584Z,11.32
2023-05-05T08:49:04.175Z,7.72
2023-05-05T08:52:11.930Z,10.30
2023-05-05T08:55:25.908Z,9.93
2023-05-05T08:58:36.407Z,9.48
2023-05-05T09:01:43.300Z,6.63
2023-05-05T09:04:49.070Z,9.82
2023-05-05T09:07:54.826Z,8.00
2023-05-05T09:11:01.837Z,8.38
2023-05-05T09:14:07.405Z,5.97
2023-05-05T09:17:27.951Z,4.22
2023-05-05T09:20:35.961Z,5.70
2023-05-05T09:24:08.238Z,10.48
2023-05-05T09:27:23.864Z,5.78
2023-05-05T09:30:29.231Z,7.53
2023-05-05T09:33:35.131Z,6.50
2023-05-05T09:36:43.387Z,10.63
2023-05-05T09:39:55.793Z,7.05
2023-05-05T09:43:03.069Z,10.45
2023-05-05T09:46:08.946Z,6.57
2023-05-05T09:49:20.481Z,7.40
2023-05-05T09:52:25.867Z,7.85
2023-05-05T09:55:31.713Z,7.78
2023-05-05T09:58:37.337Z,10.52
2023-05-05T10:01:45.435Z,8.98
2023-05-05T10:04:50.823Z,7.18
2023-05-05T10:08:12.808Z,7.47
2023-05-05T10:11:18.346Z,7.47
2023-05-05T10:14:25.580Z,7.97
2023-05-05T10:17:36.128Z,7.97
2023-05-05T10:20:44.144Z,13.18
2023-05-05T10:23:58.261Z,8.82
2023-05-05T10:27:13.084Z,6.97
2023-05-05T10:30:24.584Z,9.00
2023-05-05T10:33:38.017Z,10.20
2023-05-05T10:36:43.452Z,10.35
2023-05-05T10:39:51.443Z,8.68
2023-05-05T10:42:56.836Z,9.40
2023-05-05T10:46:02.952Z,7.25
2023-05-05T10:49:29.461Z,10.05
2023-05-05T10:53:04.201Z,12.02
2023-05-05T10:56:33.036Z,7.18
2023-05-05T10:59:38.925Z,8.68
2023-05-05T11:02:44.612Z,9.25
2023-05-05T11:06:05.934Z,8.45
2023-05-05T11:09:30.152Z,10.05
2023-05-05T11:12:58.319Z,8.45
2023-05-05T11:16:04.423Z,9.55
2023-05-05T11:19:44.424Z,9.20
2023-05-05T11:23:05.317Z,10.10
2023-05-05T11:26:13.247Z,9.57
2023-05-05T11:29:18.523Z,11.27
2023-05-05T11:32:25.192Z,12.65
2023-05-05T11:35:55.368Z,9.80
2023-05-05T11:39:19.569Z,13.55
2023-05-05T11:42:26.888Z,9.25
2023-05-05T11:45:32.411Z,10.07
2023-05-05T11:48:53.180Z,5.85
2023-05-05T11:52:00.411Z,7.30
2023-05-05T11:55:06.261Z,8.27
2023-05-05T11:58:21.275Z,8.13
2023-05-05T12:01:26.999Z,10.65
2023-05-05T12:04:32.576Z,7.30
2023-05-05T12:07:38.242Z,6.57
2023-05-05T12:10:44.443Z,9.15
2023-05-05T12:13:50.910Z,7.50
2023-05-05T12:17:01.689Z,8.38
2023-05-05T12:20:07.949Z,6.55
2023-05-05T12:23:14.807Z,9.55
2023-05-05T12:26:32.849Z,10.48
2023-05-05T12:29:38.339Z,12.70
2023-05-05T12:32:45.122Z,12.52
2023-05-05T12:35:50.616Z,9.48
2023-05-05T12:38:56.367Z,9.88
2023-05-05T12:42:05.204Z,8.20
2023-05-05T12:45:20.548Z,5.97
2023-05-05T12:48:25.902Z,10.23
2023-05-05T12:51:32.442Z,8.10
2023-05-05T12:54:59.689Z,9.07
2023-05-05T12:58:04.825Z,8.98
2023-05-05T13:01:11.191Z,8.75
2023-05-05T13:04:17.249Z,7.93
2023-05-05T13:07:23.036Z,16.08
2023-05-05T13:10:31.629Z,8.73
2023-05-05T13:13:37.610Z,8.18
2023-05-05T13:16:42.839Z,7.85
2023-05-05T13:19:48.184Z,13.15
2023-05-05T13:22:53.470Z,8.30
2023-05-05T13:25:58.970Z,6.95
2023-05-05T13:29:04.541Z,5.88
2023-05-05T13:32:09.656Z,12.43
2023-05-05T13:35:16.314Z,6.72
2023-05-05T13:38:21.831Z,7.07
2023-05-05T13:41:27.205Z,7.40
2023-05-05T13:44:32.823Z,8.65
2023-05-05T13:47:38.526Z,16.15
2023-05-05T13:50:44.277Z,7.88
2023-05-05T13:53:50.081Z,9.18
2023-05-05T13:56:55.041Z,9.00
2023-05-05T14:00:00.352Z,7.82
2023-05-05T14:03:06.211Z,6.88
2023-05-05T14:06:11.840Z,6.78
2023-05-05T14:09:17.237Z,7.35
2023-05-05T14:12:24.074Z,4.35
2023-05-05T14:15:30.544Z,5.38
2023-05-05T14:18:35.972Z,6.55
2023-05-05T14:21:41.343Z,3.83
2023-05-05T14:24:46.610Z,4.20
2023-05-05T14:27:53.262Z,6.05
2023-05-05T14:30:58.785Z,5.93
2023-05-05T14:34:04.022Z,4.82
2023-05-05T14:37:09.315Z,3.08
2023-05-05T14:40:14.599Z,4.57
2023-05-05T14:43:19.854Z,4.43
2023-05-05T14:46:26.771Z,4.07
2023-05-05T14:49:31.981Z,4.85
2023-05-05T14:52:39.484Z,4.22
2023-05-05T14:55:45.043Z,4.63
2023-05-05T14:58:50.937Z,5.40
2023-05-05T15:01:57.275Z,4.05
2023-05-05T15:05:02.705Z,2.78
2023-05-05T15:08:08.000Z,4.53
2023-05-05T15:11:14.253Z,2.58
2023-05-05T15:14:19.479Z,3.13
2023-05-05T15:17:25.332Z,4.50
2023-05-05T15:20:31.024Z,7.78
2023-05-05T15:23:36.591Z,15.80
2023-05-05T15:26:42.181Z,4.78
2023-05-05T15:29:48.781Z,9.55
2023-05-05T15:32:54.770Z,6.18
2023-05-05T15:36:00.453Z,4.88
2023-05-05T15:39:05.923Z,3.97
2023-05-05T15:42:11.455Z,4.70
2023-05-05T15:45:17.681Z,4.88
2023-05-05T15:48:22.842Z,2.67
2023-05-05T15:51:27.895Z,9.45
2023-05-05T15:54:33.153Z,6.85
2023-05-05T15:57:40.508Z,9.00
2023-05-05T16:00:45.963Z,28.05
2023-05-05T16:03:51.235Z,21.65
2023-05-05T16:06:58.454Z,2.50
2023-05-05T16:10:04.056Z,5.00
2023-05-05T16:13:09.253Z,3.05
2023-05-05T16:16:14.386Z,4.72
2023-05-05T16:19:19.949Z,6.15
2023-05-05T16:22:25.149Z,4.07
2023-05-05T16:25:31.285Z,25.00
2023-05-05T16:28:38.058Z,4.22
2023-05-05T16:31:43.557Z,4.05
2023-05-05T16:34:48.803Z,4.90
2023-05-05T16:37:54.252Z,7.88
2023-05-05T16:41:00.146Z,2.22
2023-05-05T16:44:05.201Z,2.50
2023-05-05T16:47:10.622Z,5.72
2023-05-05T16:50:17.730Z,4.20
2023-05-05T16:53:23.598Z,2.30
2023-05-05T16:56:29.240Z,3.25
2023-05-05T16:59:34.849Z,3.40
2023-05-05T17:02:40.381Z,4.80
2023-05-05T17:05:49.638Z,7.82
2023-05-05T17:08:55.516Z,3.30
2023-05-05T17:12:00.970Z,4.40
2023-05-05T17:15:07.161Z,8.57
2023-05-05T17:18:12.551Z,3.75
2023-05-05T17:21:18.143Z,4.85
2023-05-05T17:24:24.313Z,4.43
2023-05-05T17:27:30.251Z,3.78
2023-05-05T17:30:35.787Z,4.65
2023-05-05T17:33:41.406Z,10.90
2023-05-05T17:36:47.105Z,6.70
2023-05-05T17:39:52.729Z,5.95
2023-05-05T17:42:58.282Z,3.33
2023-05-05T17:46:03.850Z,2.42
2023-05-05T17:49:09.502Z,8.52
2023-05-05T17:52:15.545Z,3.78
2023-05-05T17:55:21.144Z,3.85
2023-05-05T17:58:27.570Z,4.15
2023-05-05T18:01:33.125Z,4.93
2023-05-05T18:04:39.078Z,6.50
2023-05-05T18:07:44.361Z,7.90
2023-05-05T18:10:49.603Z,5.13
2023-05-05T18:13:56.513Z,3.47
2023-05-05T18:17:01.767Z,5.13
2023-05-05T18:20:07.756Z,4.68
2023-05-05T18:23:13.501Z,4.60
2023-05-05T18:26:19.058Z,6.30
2023-05-05T18:29:24.683Z,4.05
2023-05-05T18:32:31.052Z,7.10
2023-05-05T18:35:36.618Z,7.78
2023-05-05T18:38:42.141Z,6.07
2023-05-05T18:41:47.824Z,4.93
2023-05-05T18:44:53.494Z,5.60
2023-05-05T18:47:59.145Z,8.43
2023-05-05T18:51:05.596Z,8.90
2023-05-05T18:54:11.264Z,4.88
2023-05-05T18:57:17.052Z,7.50
2023-05-05T19:00:22.973Z,5.22
2023-05-05T19:03:28.890Z,9.10
2023-05-05T19:06:34.367Z,6.22
2023-05-05T19:09:39.964Z,8.18
2023-05-05T19:12:45.563Z,10.57
2023-05-05T19:15:52.843Z,8.30
2023-05-05T19:19:01.192Z,12.30
2023-05-05T19:22:07.044Z,9.30
2023-05-05T19:25:14.698Z,6.20
2023-05-05T19:28:20.902Z,7.78
2023-05-05T19:31:28.151Z,7.50
2023-05-05T19:34:34.723Z,12.85
2023-05-05T19:37:44.278Z,7.43
2023-05-05T19:40:51.518Z,9.25
2023-05-05T19:44:03.373Z,7.50
2023-05-05T19:47:10.308Z,6.38
2023-05-05T19:50:16.557Z,7.07
2023-05-05T19:53:21.726Z,9.27
2023-05-05T19:56:28.002Z,9.98
2023-05-05T19:59:34.284Z,7.43
2023-05-05T20:02:41.591Z,9.65
2023-05-05T20:05:47.807Z,8.10
2023-05-05T20:08:55.023Z,8.43
2023-05-05T20:12:02.320Z,8.07
2023-05-05T20:15:08.714Z,8.23
2023-05-05T20:18:14.208Z,13.68
2023-05-05T20:21:20.480Z,9.15
2023-05-05T20:24:26.213Z,9.27
2023-05-05T20:27:32.506Z,8.30
2023-05-05T20:30:39.013Z,10.88
2023-05-05T20:33:45.235Z,7.35
2023-05-05T20:36:52.890Z,11.48
2023-05-05T20:39:58.687Z,8.50
2023-05-05T20:43:04.490Z,9.85
2023-05-05T20:46:14.457Z,11.82
2023-05-05T20:49:20.013Z,11.13
2023-05-05T20:52:26.211Z,12.23
2023-05-05T20:55:31.538Z,11.98
2023-05-05T20:58:37.674Z,9.00
2023-05-05T21:01:44.324Z,8.82
2023-05-05T21:04:50.680Z,9.40
2023-05-05T21:07:57.815Z,8.75
2023-05-05T21:11:08.806Z,12.05
2023-05-05T21:14:14.705Z,10.65
2023-05-05T21:17:20.835Z,15.85
2023-05-05T21:20:27.115Z,11.73
2023-05-05T21:23:32.647Z,12.27
2023-05-05T21:26:38.150Z,12.00
2023-05-05T21:29:43.623Z,13.88
2023-05-05T21:32:49.364Z,14.73
2023-05-05T21:35:54.869Z,16.08
2023-05-05T21:39:01.222Z,13.77
2023-05-05T21:42:06.848Z,20.30
2023-05-05T21:45:12.861Z,20.42
2023-05-05T21:48:18.634Z,18.88
2023-05-05T21:51:24.420Z,14.50
2023-05-05T21:54:30.476Z,18.83
2023-05-05T21:57:36.372Z,16.27
2023-05-05T22:00:42.616Z,13.68
2023-05-05T22:03:48.242Z,19.67
2023-05-05T22:06:54.229Z,18.70
2023-05-05T22:09:59.701Z,17.40
2023-05-05T22:13:05.851Z,17.73
2023-05-05T22:16:12.499Z,20.08
2023-05-05T22:19:21.205Z,19.00
2023-05-05T22:22:26.608Z,18.52
2023-05-05T22:25:32.212Z,16.65
2023-05-05T22:28:38.812Z,17.88
2023-05-05T22:31:44.298Z,16.85
2023-05-05T22:34:49.893Z,18.95
2023-05-05T22:37:55.201Z,15.38
2023-05-05T22:41:01.322Z,18.55
2023-05-05T22:44:07.209Z,16.73
2023-05-05T22:47:13.553Z,18.95
2023-05-05T22:50:19.359Z,18.85
2023-05-05T22:53:25.077Z,21.55
2023-05-05T22:56:30.626Z,17.48
2023-05-05T22:59:36.283Z,18.85
2023-05-05T23:02:42.235Z,23.27
2023-05-05T23:05:47.645Z,22.27
2023-05-05T23:08:53.457Z,17.45
2023-05-05T23:11:59.568Z,19.40
2023-05-05T23:15:05.892Z,22.92
2023-05-05T23:18:11.595Z,19.90
2023-05-05T23:21:16.877Z,19.00
2023-05-05T23:24:22.625Z,20.77
2023-05-05T23:27:28.614Z,20.33
2023-05-05T23:30:34.536Z,19.35
2023-05-05T23:33:39.897Z,18.02
2023-05-05T23:36:45.636Z,18.45
2023-05-05T23:39:51.290Z,21.50
2023-05-05T23:42:57.105Z,19.40
2023-05-05T23:46:03.137Z,25.27
2023-05-05T23:49:08.715Z,18.70
2023-05-05T23:52:14.636Z,17.20
2023-05-05T23:55:20.968Z,20.77
2023-05-05T23:58:26.900Z,18.77
